WetterOnline ( http://www.wetteronline.de )

Wetter aktuell Freising

Aktuelles Wetter: Weihenstephan-Dürnast (478m)

6-stündlich | Neueste Meldungen
Ortszeit Temperatur Wetter
Di, 24.04. 2:00 12.9° C leichter Regen
Mo, 23.04. 20:00 15.5° C bedeckt
Mo, 23.04. 14:00 23.1° C wolkig
Mo, 23.04. 8:00 14.0° C bedeckt
Mo, 23.04. 2:00 15.5° C wolkig
So, 22.04. 20:00 20.7° C wolkig
So, 22.04. 14:00 25.5° C leicht bewölkt
So, 22.04. 8:00 12.1° C leicht bewölkt
Ortszeit Temperatur Wetter
Di, 24.04. 6:30 11.8° C wolkig
Di, 24.04. 6:20 11.8° C wolkig
Di, 24.04. 6:10 11.8° C bewölkt
Di, 24.04. 6:00 11.6° C bewölkt
Di, 24.04. 5:50 11.6° C bewölkt
Di, 24.04. 5:40 12.1° C wolkig
Di, 24.04. 5:30 12.2° C bewölkt
Di, 24.04. 5:00 12.4° C bewölkt
Di, 24.04. 4:30 12.7° C bedeckt
Di, 24.04. 4:00 12.8° C bedeckt
Di, 24.04. 3:30 12.8° C bedeckt
Ortszeit Relative Feuchte Sichtweite
Di, 24.04. 2:00 88% 24 km
Mo, 23.04. 20:00 77% 40 km
Mo, 23.04. 14:00 40% 12 km
Mo, 23.04. 8:00 74% 20 km
Mo, 23.04. 2:00 59% 30 km
So, 22.04. 20:00 50% 45 km
So, 22.04. 14:00 40% 21 km
So, 22.04. 8:00 77% 14 km
Ortszeit Relative Feuchte Sichtweite
Di, 24.04. 6:30 93% 17 km
Di, 24.04. 6:20 93% -
Di, 24.04. 6:10 93% -
Di, 24.04. 6:00 93% 17 km
Di, 24.04. 5:50 93% -
Di, 24.04. 5:40 91% -
Di, 24.04. 5:30 91% 23 km
Di, 24.04. 5:00 91% 25 km
Di, 24.04. 4:30 89% 28 km
Di, 24.04. 4:00 89% 30 km
Di, 24.04. 3:30 89% 28 km
Ortszeit Niederschlagsmenge Niederschlagsart
Di, 24.04. 2:00 1 l/m2 in 6 Std. Regen
Mo, 23.04. 20:00 0.3 l/m2 in 12 Std. Regen
Mo, 23.04. 14:00 0.1 l/m2 in 6 Std. Regen
Mo, 23.04. 8:00 0.1 l/m2 in 12 Std. Regen
Mo, 23.04. 2:00 0.0 l/m2 in 6 Std. -
So, 22.04. 20:00 0.0 l/m2 in 12 Std. -
So, 22.04. 14:00 0.0 l/m2 in 6 Std. -
So, 22.04. 8:00 0.0 l/m2 in 12 Std. -
Ortszeit Niederschlagsmenge Niederschlagsart
Di, 24.04. 6:30 0.0 l/m2 in 1 Std. -
Di, 24.04. 6:20 keine Meldung -
Di, 24.04. 6:10 keine Meldung -
Di, 24.04. 6:00 0.0 l/m2 in 1 Std. -
Di, 24.04. 5:50 keine Meldung -
Di, 24.04. 5:40 keine Meldung -
Di, 24.04. 5:30 0.0 l/m2 in 1 Std. -
Di, 24.04. 5:00 0.1 l/m2 in 1 Std. Regen
Di, 24.04. 4:30 0.1 l/m2 in 1 Std. Schneeregen
Di, 24.04. 4:00 0.1 l/m2 in 1 Std. Regen
Di, 24.04. 3:30 0.1 l/m2 in 1 Std. Schneeregen
Ortszeit Stärke Spitze Richtung
km/h Bft. km/h Grad Sektor
Di, 24.04. 2:00 18 3 32 250° W
Mo, 23.04. 20:00 13 3 43 250° W
Mo, 23.04. 14:00 25 4 40 270° W
Mo, 23.04. 8:00 4 1 22 260° W
Mo, 23.04. 2:00 13 3 19 240° SW
So, 22.04. 20:00 0 0 29 - -
So, 22.04. 14:00 9 2 19 220° SW
So, 22.04. 8:00 0 0 7 - -
Ortszeit Stärke Spitze Richtung
km/h Bft. km/h Grad Sektor
Di, 24.04. 6:30 15 3 20 260° W
Di, 24.04. 6:20 15 3 - 260° W
Di, 24.04. 6:10 14 3 - 260° W
Di, 24.04. 6:00 13 3 22 260° W
Di, 24.04. 5:50 13 3 - 260° W
Di, 24.04. 5:40 13 3 - 260° W
Di, 24.04. 5:30 13 3 22 260° W
Di, 24.04. 5:00 19 3 26 260° W
Di, 24.04. 4:30 20 4 26 250° W
Di, 24.04. 4:00 17 3 24 260° W
Di, 24.04. 3:30 17 3 22 260° W
Ortszeit Untergrenze Bedeckung Gattung
total tief tief mittel hoch
Di, 24.04. 2:00 900 m 8/8 8/8 - - -
Mo, 23.04. 20:00 3300 m 8/8 8/8 - - -
Mo, 23.04. 14:00 3300 m 8/8 8/8 - - -
Mo, 23.04. 8:00 3000 m 8/8 8/8 - - -
Mo, 23.04. 2:00 3000 m 8/8 1/8 - - -
So, 22.04. 20:00 7800 m 8/8 0/8 - - -
So, 22.04. 14:00 10500 m 4/8 0/8 - - -
So, 22.04. 8:00 2400 m 3/8 3/8 - - -
Ortszeit Bedeckungsgrad in Achtel und Wolkenuntergrenze
Di, 24.04. 6:30 1(570m) 4(1800m) 5(2400m)
Di, 24.04. 6:20 1(570m) 4(1800m) 5(2400m)
Di, 24.04. 6:10 1(570m) 5(1800m) 7(2400m)
Di, 24.04. 6:00 1(1500m) 7(2400m) 7(9000m)
Di, 24.04. 5:50 1(1500m) 7(2400m) 7(9000m)
Di, 24.04. 5:40 3(1800m) 6(2700m) 6(9000m)
Di, 24.04. 5:30 2(750m) 7(1800m) 7(2400m)
Di, 24.04. 5:00 2(750m) 6(1500m) 7(2700m)
Di, 24.04. 4:30 7(1500m) 8(1800m)
Di, 24.04. 4:00 2(720m) 5(1200m) 8(1440m)
Di, 24.04. 3:30 6(750m) 8(1350m) 8(1800m)
Ortszeit Luftdruck NN (hPa) Tendenz (hPa in 3 Std.)
Di, 24.04. 2:00 1019 + 0,4
Mo, 23.04. 20:00 1016 + 0,4
Mo, 23.04. 14:00 1014 - 0,5
Mo, 23.04. 8:00 1016 + 0,7
Mo, 23.04. 2:00 1015 + 0,5
So, 22.04. 20:00 1013 - 0,2
So, 22.04. 14:00 1014 - 1,2
So, 22.04. 8:00 1018 + 0,3
Ortszeit Luftdruck NN (hPa) Tendenz (hPa in 3 Std.)
Di, 24.04. 6:30 1020 + 0,5
Di, 24.04. 6:20 1020 keine Meldung
Di, 24.04. 6:10 1020 keine Meldung
Di, 24.04. 6:00 1020 + 0,7
Di, 24.04. 5:50 1020 keine Meldung
Di, 24.04. 5:40 1020 keine Meldung
Di, 24.04. 5:30 1020 + 0,6
Di, 24.04. 5:00 1020 + 0,6
Di, 24.04. 4:30 1019 + 0,4
Di, 24.04. 4:00 1019 + 0,3
Di, 24.04. 3:30 1019 + 0,3
Ortszeit Schneehöhe (cm)
Di, 24.04. 2:00 -
Mo, 23.04. 20:00 0
Mo, 23.04. 14:00 0
Mo, 23.04. 8:00 0
Mo, 23.04. 2:00 0
So, 22.04. 20:00 0
So, 22.04. 14:00 0
So, 22.04. 8:00 0
Ortszeit Schneehöhe (cm)
Di, 24.04. 6:30 -
Di, 24.04. 6:20 -
Di, 24.04. 6:10 -
Di, 24.04. 6:00 -
Di, 24.04. 5:50 -
Di, 24.04. 5:40 -
Di, 24.04. 5:30 -
Di, 24.04. 5:00 -
Di, 24.04. 4:30 -
Di, 24.04. 4:00 -
Di, 24.04. 3:30 -
Link zu dieser Seite / Seite empfehlen

Das Wetter in ...